Accueil en_GB de_DE fr_FR  

27.06.17 20:42 UTC   Mobile
Tarifs
FAQ (Foire aux questions)

 
TopMeteo
Nom d'utilisateur Mot de passe  



La recherche de l'itinéraire n'est disponible qu'aux utilisateurs avec un abonnement actif.

Nous vous affichons les endroits standard. Pour mieux comprendre les rapports de temps de METAR cf. Wikipedia.


EDAH Heringsdorf TAF/S
16:50Z
271700Z 2718/2803 07008KT CAVOK
04006KT 010V090 CAVOK 17/09 Q1011
EDDG Münster Osnabrück Flughafen TAF/L


20:20Z
271700Z 2718/2818 08005KT 9999 SCT045 PROB30
TEMPO 2722/2803 TSRA BKN035CB ; BECMG 2806/2809 15005KT ; BECMG 2811/2814 22005KT
TEMPO 2811/2818 RA PROB40 ; TEMPO 2812/2816 +TSRA SCT014 BKN020CB
04003KT 330V130 9999 FEW030 BKN070 17/15 Q1005 NOSIG
KBUF Greater Buffalo International TAF/L




19:54Z
271720Z 2718/2818 25015G21KT P6SM VCSH BKN070
FM280000 27011KT P6SM BKN250
FM280300 25007KT P6SM FEW250
FM280800 20005KT P6SM SCT250
FM281300 24009KT P6SM FEW250
25014KT 10SM -RA SCT022 BKN060 BKN085 BKN220 17/11 A2997 RMK AO2 RAE31B54 SLP150 MDT CU OHD-ALQDS PCPN VRY LGT P0001 T01670111
KPIT Greater Pittsburgh International TAF/L

19:51Z
271720Z 2718/2824 29010G20KT P6SM BKN045
FM272300 26004KT P6SM SKC
27011G18KT 10SM SCT047 BKN075 20/09 A3007 RMK AO2 SLP188 T02000089
KAXH Houston Southwest 20:15Z AUTO 13008KT 10SM CLR 28/23 A2999 RMK AO2 LTG DSNT N AND SW T02780226
LIMC Milano/Malpensa TAF/L

20:20Z
271700Z 2718/2824 VRB05KT 9999 SCT030 SCT060
TEMPO 2720/2824 3000 TSRA
01005KT 9999 BKN070 23/19 Q1008 NOSIG
LOWK Klagenfurt-Flughafen TAF/L

20:20Z
271715Z 2718/2818 VRB02KT 9999 FEW060 SCT300 TX26/2814Z TN18/2804Z
TEMPO 2809/2818 25012KT SCT060 FEW060CB BKN300 ; TEMPO 2813/2818 -TSRA
VRB01KT 9999 FEW070 19/15 Q1010 NOSIG
FYWB Walvis Bay 20:00Z AUTO 00000KT //// // ////// 14/10 Q1021
FBFT Francistown TAF/S
19:00Z
271200Z 2715/2724 16003KT CAVOK
VRB03KT CAVOK 11/04 Q1023

Data source: ftp://tgftp.nws.noaa.gov/SL.us008001
"Data is provided as a public service by NOAA's National Weather Service (NWS) and is considered public information and may be distributed or copied."
 
 
CGV
Mentions légales
Qui sommes nous?
Simulation numérique: 12 UTC - Prévision: Di 02.07.17 23:00